Time;durP1;ratioP1;P1;durP2;ratioP2;P2;SDS_P1;SDS_P2;PMS_P1;PMS_P2;Temp;Humidity;BMP_temperature;BMP_pressure;BME280_temperature;BME280_humidity;BME280_pressure;Samples;Min_cycle;Max_cycle;Signal;HPM_P1;HPM_P2
2021/11/19 00:03:57;;;;;;;10.80;9.80;;;7.60;44.40;;;;;;10409202;28;20429;-75
2021/11/19 00:09:03;;;;;;;10.77;9.73;;;7.50;44.30;;;;;;10409393;28;20233;-75
2021/11/19 00:14:08;;;;;;;9.53;8.63;;;7.50;44.10;;;;;;10455806;28;20715;-74
2021/11/19 00:19:12;;;;;;;10.77;9.80;;;7.50;44.20;;;;;;10491821;28;20240;-75
2021/11/19 00:24:17;;;;;;;10.87;9.67;;;7.50;44.10;;;;;;10491391;28;20229;-75
2021/11/19 00:29:21;;;;;;;11.43;10.30;;;7.50;44.00;;;;;;10488696;28;20228;-74
2021/11/19 00:34:24;;;;;;;11.20;10.07;;;7.40;44.00;;;;;;10490339;28;20224;-75
2021/11/19 00:39:29;;;;;;;10.27;9.27;;;7.30;44.10;;;;;;10490223;28;20236;-75
2021/11/19 00:44:32;;;;;;;9.73;8.73;;;7.20;44.50;;;;;;10488665;28;20675;-75
2021/11/19 00:49:38;;;;;;;11.67;10.20;;;7.20;44.50;;;;;;10489402;28;20228;-74
2021/11/19 00:54:43;;;;;;;10.90;9.87;;;7.20;44.80;;;;;;10489788;28;20594;-75
2021/11/19 00:59:47;;;;;;;11.13;10.13;;;7.20;44.90;;;;;;10488631;28;20231;-75
2021/11/19 01:04:51;;;;;;;10.30;9.30;;;7.10;44.90;;;;;;10488673;28;20231;-75
2021/11/19 01:09:58;;;;;;;11.20;10.20;;;7.10;45.20;;;;;;10488653;28;20232;-74
2021/11/19 01:15:08;;;;;;;9.63;8.73;;;7.10;45.40;;;;;;10482842;28;20231;-76
2021/11/19 01:20:17;;;;;;;11.23;10.10;;;7.20;45.60;;;;;;10462258;28;20767;-76
2021/11/19 01:25:24;;;;;;;9.77;8.87;;;7.30;45.80;;;;;;10446949;28;20716;-76
2021/11/19 01:30:33;;;;;;;11.10;10.07;;;7.30;45.70;;;;;;10461758;28;20232;-76
2021/11/19 01:35:37;;;;;;;10.67;9.67;;;7.40;45.70;;;;;;10459373;28;20230;-76
2021/11/19 01:40:51;;;;;;;11.70;10.60;;;7.40;45.60;;;;;;10465044;28;20234;-76
2021/11/19 01:45:56;;;;;;;11.17;10.17;;;7.40;45.80;;;;;;10456310;28;20220;-76
2021/11/19 01:51:03;;;;;;;10.47;9.57;;;7.50;45.90;;;;;;10419182;28;20727;-76
2021/11/19 01:56:12;;;;;;;11.20;10.00;;;7.50;46.00;;;;;;10438712;28;20225;-76
2021/11/19 02:01:18;;;;;;;10.23;9.23;;;7.50;46.00;;;;;;10463215;28;20236;-76
2021/11/19 02:06:25;;;;;;;9.77;8.97;;;7.60;46.00;;;;;;10456961;28;20229;-76
2021/11/19 02:11:41;;;;;;;10.53;9.53;;;7.60;45.90;;;;;;10465312;28;20262;-76
2021/11/19 02:16:49;;;;;;;10.20;9.30;;;7.70;46.10;;;;;;10444718;28;20596;-76
2021/11/19 02:21:56;;;;;;;9.67;8.87;;;7.70;45.70;;;;;;10431090;28;20233;-76
2021/11/19 02:27:04;;;;;;;10.77;9.77;;;7.70;45.60;;;;;;10461681;28;20356;-76
2021/11/19 02:32:11;;;;;;;10.77;9.73;;;7.60;45.70;;;;;;10460306;28;20227;-76
2021/11/19 02:37:18;;;;;;;10.90;9.90;;;7.60;45.80;;;;;;10463132;28;20225;-77
2021/11/19 02:42:25;;;;;;;10.77;9.77;;;7.50;45.90;;;;;;10462733;28;20235;-77
2021/11/19 02:47:30;;;;;;;11.90;10.80;;;7.60;46.20;;;;;;10458851;28;20266;-77
2021/11/19 02:52:36;;;;;;;11.07;10.07;;;7.50;46.20;;;;;;10466255;28;20650;-77
2021/11/19 02:57:40;;;;;;;11.87;10.77;;;7.60;46.20;;;;;;10463393;28;20248;-76
2021/11/19 03:02:44;;;;;;;10.97;9.97;;;7.60;46.30;;;;;;10446970;28;20229;-76
2021/11/19 03:07:47;;;;;;;10.80;9.70;;;7.60;46.20;;;;;;10429906;28;20767;-77
2021/11/19 03:12:54;;;;;;;11.17;10.17;;;7.60;46.20;;;;;;10460165;28;20235;-77
2021/11/19 03:17:59;;;;;;;11.17;10.10;;;7.60;46.20;;;;;;10416524;28;20771;-76
2021/11/19 03:23:03;;;;;;;9.90;9.10;;;7.70;46.20;;;;;;10435141;28;20229;-77
2021/11/19 03:28:12;;;;;;;11.87;10.77;;;7.70;46.00;;;;;;10467348;28;20221;-76
2021/11/19 03:33:23;;;;;;;11.87;10.77;;;7.70;46.00;;;;;;10462214;28;20236;-77
2021/11/19 03:38:30;;;;;;;12.53;11.43;;;7.80;45.90;;;;;;10460338;28;20235;-76
2021/11/19 03:43:38;;;;;;;11.03;10.13;;;7.70;45.80;;;;;;10465854;28;20563;-77
2021/11/19 03:48:42;;;;;;;11.33;10.33;;;7.70;45.80;;;;;;10451199;28;20219;-76
2021/11/19 03:53:46;;;;;;;11.67;10.60;;;7.70;45.70;;;;;;10439940;28;20236;-76
2021/11/19 03:58:51;;;;;;;12.70;11.47;;;7.60;45.60;;;;;;10426376;28;20618;-77
2021/11/19 04:03:54;;;;;;;11.13;10.13;;;7.60;45.70;;;;;;10417918;28;20234;-77
2021/11/19 04:08:57;;;;;;;12.63;11.33;;;7.50;46.00;;;;;;10420229;28;20229;-77
2021/11/19 04:14:02;;;;;;;11.47;10.37;;;7.50;45.90;;;;;;10421283;28;20229;-77
2021/11/19 04:19:08;;;;;;;11.67;10.57;;;7.50;46.00;;;;;;10423779;28;20712;-77
2021/11/19 04:24:15;;;;;;;10.60;9.60;;;7.50;45.90;;;;;;10448398;28;20216;-76
2021/11/19 04:29:23;;;;;;;12.23;11.03;;;7.50;46.00;;;;;;10458412;28;20295;-77
2021/11/19 04:34:27;;;;;;;11.43;10.33;;;7.50;46.00;;;;;;10459496;28;20239;-77
2021/11/19 04:39:30;;;;;;;11.27;10.07;;;7.50;45.80;;;;;;10462885;28;20735;-77
2021/11/19 04:44:36;;;;;;;12.10;10.90;;;7.60;45.60;;;;;;10461726;28;20224;-76
2021/11/19 04:49:40;;;;;;;11.93;10.77;;;7.50;45.50;;;;;;10456014;28;20229;-76
2021/11/19 04:54:44;;;;;;;11.70;10.57;;;7.50;45.50;;;;;;10448470;28;20229;-76
2021/11/19 04:59:49;;;;;;;11.90;10.80;;;7.40;45.60;;;;;;10416167;28;20316;-77
2021/11/19 05:04:52;;;;;;;12.30;11.17;;;7.40;45.90;;;;;;10424813;28;20239;-77
2021/11/19 05:09:55;;;;;;;12.37;11.27;;;7.30;45.90;;;;;;10417521;28;20249;-76
2021/11/19 05:15:00;;;;;;;12.40;11.10;;;7.30;45.80;;;;;;10416893;28;20228;-76
2021/11/19 05:20:05;;;;;;;12.37;11.00;;;7.30;46.00;;;;;;10420132;28;20225;-76
2021/11/19 05:25:11;;;;;;;12.43;11.23;;;7.20;46.00;;;;;;10450274;28;20574;-77
2021/11/19 05:30:17;;;;;;;12.80;11.50;;;7.20;46.20;;;;;;10441556;28;20286;-77
2021/11/19 05:35:21;;;;;;;12.30;11.10;;;7.20;46.20;;;;;;10423325;28;20225;-76
2021/11/19 05:40:25;;;;;;;21.70;17.97;;;7.20;46.30;;;;;;10423573;28;20237;-77
2021/11/19 05:45:31;;;;;;;23.03;17.67;;;7.20;46.40;;;;;;10422962;28;20227;-78
2021/11/19 05:50:37;;;;;;;13.20;11.87;;;7.20;46.50;;;;;;10471354;28;20321;-75
2021/11/19 05:55:45;;;;;;;23.37;20.73;;;7.30;46.50;;;;;;10469994;28;20229;-76
2021/11/19 06:00:52;;;;;;;15.33;13.60;;;7.30;46.40;;;;;;10434278;28;20230;-76
2021/11/19 06:05:56;;;;;;;16.70;15.07;;;7.40;46.30;;;;;;10427175;28;20217;-75
2021/11/19 06:11:05;;;;;;;15.73;14.13;;;7.40;46.10;;;;;;10428593;28;20236;-75
2021/11/19 06:16:12;;;;;;;13.50;12.20;;;7.40;47.00;;;;;;10425317;28;20225;-75
2021/11/19 06:21:22;;;;;;;14.33;12.97;;;7.40;46.60;;;;;;10424193;28;20781;-75
2021/11/19 06:26:27;;;;;;;13.27;11.87;;;7.40;46.60;;;;;;10426524;28;20236;-75
2021/11/19 06:31:33;;;;;;;14.97;13.47;;;7.40;46.50;;;;;;10420840;28;20225;-75
2021/11/19 06:36:40;;;;;;;13.93;12.53;;;7.30;47.20;;;;;;10422342;28;20233;-75
2021/11/19 06:42:04;;;;;;;13.57;12.27;;;7.30;46.50;;;;;;10418504;28;20400;-75
2021/11/19 06:47:09;;;;;;;15.93;12.60;;;7.20;46.50;;;;;;10419281;28;20226;-75
2021/11/19 06:52:12;;;;;;;15.97;12.43;;;7.10;46.60;;;;;;10459041;28;20628;-75
2021/11/19 06:57:16;;;;;;;15.23;12.10;;;7.10;46.70;;;;;;10453956;28;20220;-75
2021/11/19 07:02:20;;;;;;;14.70;13.27;;;7.10;46.80;;;;;;10450615;28;20737;-75
2021/11/19 07:07:23;;;;;;;14.63;13.20;;;7.10;47.10;;;;;;10424258;28;20600;-75
2021/11/19 07:12:27;;;;;;;15.63;13.93;;;7.20;47.00;;;;;;10446340;28;20715;-75
2021/11/19 07:17:31;;;;;;;14.50;13.03;;;7.20;47.10;;;;;;10432268;23;20567;-70
2021/11/19 07:22:35;;;;;;;14.13;12.73;;;7.30;47.40;;;;;;10415907;28;20227;-70
2021/11/19 07:27:39;;;;;;;14.67;13.27;;;7.30;47.20;;;;;;10385689;28;20226;-70
2021/11/19 07:32:44;;;;;;;14.83;13.33;;;7.40;47.30;;;;;;10400600;28;20588;-74
2021/11/19 07:37:47;;;;;;;14.40;12.93;;;7.50;47.50;;;;;;10381128;28;20222;-74
2021/11/19 07:42:50;;;;;;;16.13;14.53;;;7.50;47.30;;;;;;10387781;28;20718;-74
2021/11/19 07:47:58;;;;;;;15.03;13.53;;;7.60;47.40;;;;;;10388027;28;20801;-74
2021/11/19 07:53:02;;;;;;;20.87;16.10;;;7.60;47.50;;;;;;10413516;28;20296;-72
2021/11/19 07:58:05;;;;;;;16.87;15.17;;;7.60;47.50;;;;;;10383798;28;20232;-75
2021/11/19 08:03:10;;;;;;;16.60;14.33;;;7.60;47.50;;;;;;10369890;28;20233;-74
2021/11/19 08:08:14;;;;;;;14.53;13.03;;;7.60;47.70;;;;;;10380454;28;20247;-74
2021/11/19 08:13:18;;;;;;;15.80;14.10;;;7.70;47.90;;;;;;10379662;28;20621;-75
2021/11/19 08:18:27;;;;;;;15.87;14.27;;;7.70;47.90;;;;;;10381460;28;20245;-74
2021/11/19 08:23:34;;;;;;;15.17;13.57;;;7.70;48.10;;;;;;10384925;28;20221;-74
2021/11/19 08:28:38;;;;;;;15.20;13.70;;;7.80;48.10;;;;;;10382153;28;20264;-74
2021/11/19 08:33:43;;;;;;;15.27;13.77;;;7.80;48.10;;;;;;10381627;28;20234;-73
2021/11/19 08:38:47;;;;;;;16.00;14.50;;;7.90;48.30;;;;;;10371644;28;20228;-74
2021/11/19 08:43:52;;;;;;;16.90;15.20;;;8.00;48.20;;;;;;10375319;28;20236;-74
2021/11/19 08:48:57;;;;;;;16.20;14.60;;;8.00;48.30;;;;;;10376549;28;20226;-74
2021/11/19 08:54:03;;;;;;;16.07;13.50;;;8.20;48.60;;;;;;10374287;28;20610;-73
2021/11/19 08:59:10;;;;;;;14.40;13.00;;;8.20;48.80;;;;;;10418866;28;20531;-73
2021/11/19 09:04:16;;;;;;;15.90;13.80;;;8.40;49.00;;;;;;10414200;28;20233;-73
2021/11/19 09:09:19;;;;;;;13.63;11.30;;;8.60;49.30;;;;;;10416016;28;20270;-73
2021/11/19 09:14:23;;;;;;;14.73;10.73;;;8.70;48.90;;;;;;10418153;28;20225;-73
2021/11/19 09:19:49;;;;;;;13.23;9.57;;;8.90;49.00;;;;;;10412099;28;20791;-73
2021/11/19 09:25:08;;;;;;;14.50;9.93;;;9.00;49.00;;;;;;10383654;28;20268;-73
2021/11/19 09:30:15;;;;;;;12.77;9.90;;;9.20;48.70;;;;;;10381028;28;20222;-73
2021/11/19 09:35:23;;;;;;;14.37;9.40;;;9.30;48.30;;;;;;10373648;28;20240;-73
2021/11/19 09:40:29;;;;;;;11.43;9.13;;;9.40;48.00;;;;;;10385600;28;20247;-73
2021/11/19 09:45:52;;;;;;;11.53;10.13;;;9.40;47.70;;;;;;10417761;28;20574;-73
2021/11/19 09:51:29;;;;;;;11.33;10.13;;;9.50;47.80;;;;;;10395005;28;20233;-73
2021/11/19 09:56:54;;;;;;;11.80;10.60;;;9.50;47.70;;;;;;10387801;28;20225;-73
2021/11/19 10:02:44;;;;;;;14.33;11.60;;;9.60;47.50;;;;;;10376367;28;20230;-74
2021/11/19 10:07:59;;;;;;;13.50;11.77;;;9.60;47.20;;;;;;10386287;28;20250;-74
2021/11/19 10:13:18;;;;;;;15.63;12.47;;;9.60;47.30;;;;;;10419753;28;20221;-73
2021/11/19 10:18:30;;;;;;;13.87;12.40;;;9.60;47.10;;;;;;10417393;28;20235;-74
2021/11/19 10:23:39;;;;;;;13.07;11.67;;;9.60;47.30;;;;;;10417623;28;20767;-73
2021/11/19 10:28:46;;;;;;;13.73;12.13;;;9.60;47.40;;;;;;10419462;28;20261;-73
2021/11/19 10:34:07;;;;;;;14.40;12.90;;;9.70;48.20;;;;;;10421007;28;20225;-74
2021/11/19 10:39:42;;;;;;;15.43;12.87;;;9.70;47.60;;;;;;10427324;28;20227;-74
2021/11/19 10:45:09;;;;;;;15.60;13.27;;;9.70;47.60;;;;;;10423514;28;20233;-73
2021/11/19 10:50:54;;;;;;;13.90;12.50;;;9.80;47.60;;;;;;10421527;28;20229;-73
2021/11/19 10:56:37;;;;;;;13.97;12.57;;;10.00;46.90;;;;;;10416857;28;20240;-74
2021/11/19 11:01:47;;;;;;;13.40;12.00;;;10.10;46.70;;;;;;10411493;28;20291;-74
2021/11/19 11:06:54;;;;;;;11.93;10.70;;;10.30;46.10;;;;;;10425994;28;20233;-74
2021/11/19 11:12:09;;;;;;;13.47;11.37;;;10.30;46.10;;;;;;10422591;28;20221;-74
2021/11/19 11:17:31;;;;;;;12.17;10.97;;;10.40;46.10;;;;;;10423548;28;20689;-73
2021/11/19 11:22:38;;;;;;;15.17;10.93;;;10.50;46.10;;;;;;10422263;28;20248;-73
2021/11/19 11:28:03;;;;;;;11.93;10.70;;;10.60;46.40;;;;;;10422339;28;20394;-74
2021/11/19 11:33:15;;;;;;;13.07;11.57;;;10.60;46.10;;;;;;10423211;28;20520;-73
2021/11/19 11:38:28;;;;;;;15.70;12.13;;;10.70;46.30;;;;;;10420798;28;20235;-73
2021/11/19 11:43:35;;;;;;;12.57;11.07;;;10.90;46.70;;;;;;10419059;28;20316;-73
2021/11/19 11:48:45;;;;;;;12.40;11.13;;;11.00;46.20;;;;;;10425617;28;20232;-73
2021/11/19 11:53:58;;;;;;;12.70;11.33;;;11.20;46.30;;;;;;10423131;28;20743;-70
2021/11/19 11:59:06;;;;;;;11.73;9.70;;;11.30;45.80;;;;;;10417258;28;20232;-70
2021/11/19 12:04:26;;;;;;;13.80;12.33;;;11.40;45.60;;;;;;10420695;28;20564;-70
2021/11/19 12:09:35;;;;;;;15.27;12.40;;;11.50;45.30;;;;;;10419887;28;20245;-70
2021/11/19 12:14:47;;;;;;;12.43;11.17;;;11.50;45.10;;;;;;10417943;28;20575;-70
2021/11/19 12:19:56;;;;;;;13.27;11.37;;;11.50;44.80;;;;;;10418316;28;20316;-70
2021/11/19 12:25:27;;;;;;;15.03;11.80;;;11.50;45.20;;;;;;10420373;28;20788;-71
2021/11/19 12:30:35;;;;;;;13.37;11.43;;;11.60;44.60;;;;;;10420097;28;20283;-70
2021/11/19 12:35:44;;;;;;;13.50;12.07;;;11.60;45.00;;;;;;10420644;28;20225;-69
2021/11/19 12:40:58;;;;;;;13.80;11.03;;;11.70;45.10;;;;;;10421831;28;20229;-69
2021/11/19 12:46:20;;;;;;;12.53;11.23;;;11.70;45.70;;;;;;10417008;28;20228;-69
2021/11/19 12:51:34;;;;;;;11.40;10.17;;;11.80;44.60;;;;;;10419776;28;20643;-69
2021/11/19 12:57:05;;;;;;;11.27;10.03;;;11.90;45.50;;;;;;10414563;28;20721;-69
2021/11/19 13:02:23;;;;;;;11.37;10.17;;;12.00;45.10;;;;;;10381257;28;20228;-70
2021/11/19 13:07:53;;;;;;;9.50;8.50;;;12.10;44.80;;;;;;10379270;28;20238;-69
2021/11/19 13:13:34;;;;;;;10.23;8.20;;;12.10;44.50;;;;;;10377411;28;20229;-69
2021/11/19 13:18:44;;;;;;;12.13;7.87;;;12.20;43.70;;;;;;10378331;28;20220;-69
2021/11/19 13:23:52;;;;;;;13.97;10.27;;;12.20;43.80;;;;;;10387785;28;20218;-70
2021/11/19 13:34:30;;;;;;;10.57;9.03;;;12.10;44.20;;;;;;10392848;28;20450;-73
2021/11/19 13:39:37;;;;;;;9.97;8.97;;;12.10;43.70;;;;;;10416156;28;20220;-72
2021/11/19 13:45:03;;;;;;;10.80;9.70;;;12.10;44.30;;;;;;10426570;28;20223;-70
2021/11/19 13:50:16;;;;;;;12.67;10.07;;;12.10;43.80;;;;;;10423805;28;20800;-70
2021/11/19 13:55:27;;;;;;;11.50;10.30;;;12.00;43.50;;;;;;10424084;28;20243;-69
2021/11/19 14:00:57;;;;;;;12.00;10.23;;;12.10;43.70;;;;;;10424875;28;20796;-71
2021/11/19 14:06:15;;;;;;;12.30;9.77;;;12.10;43.60;;;;;;10423225;28;20228;-71
2021/11/19 14:11:23;;;;;;;14.50;10.60;;;12.10;43.50;;;;;;10429222;28;20647;-72
2021/11/19 14:16:30;;;;;;;13.83;11.93;;;11.90;43.50;;;;;;10428945;28;20753;-69
2021/11/19 14:27:17;;;;;;;14.73;10.10;;;12.00;43.80;;;;;;10432326;28;20218;-69
2021/11/19 14:32:26;;;;;;;12.63;9.80;;;12.00;43.40;;;;;;10426081;28;20304;-69
2021/11/19 14:37:53;;;;;;;10.57;9.00;;;12.00;43.70;;;;;;10431703;28;20236;-69
2021/11/19 14:42:57;;;;;;;10.03;8.77;;;12.00;43.80;;;;;;10433820;28;20229;-71
2021/11/19 14:48:03;;;;;;;11.23;8.77;;;12.00;44.00;;;;;;10435980;28;20225;-71
2021/11/19 14:53:11;;;;;;;13.27;9.23;;;12.00;43.90;;;;;;10433257;28;20233;-71
2021/11/19 14:58:22;;;;;;;13.13;11.20;;;12.00;43.60;;;;;;10434765;28;20229;-71
2021/11/19 15:03:42;;;;;;;15.67;10.73;;;11.90;43.10;;;;;;10426320;28;20233;-70
2021/11/19 15:09:14;;;;;;;13.17;10.83;;;11.80;44.10;;;;;;10434622;28;20524;-71
2021/11/19 15:14:32;;;;;;;19.77;13.37;;;11.80;43.70;;;;;;10430363;28;20300;-73
2021/11/19 15:19:39;;;;;;;16.40;12.97;;;11.80;43.20;;;;;;10429619;28;20618;-73
2021/11/19 15:24:46;;;;;;;14.63;12.97;;;11.70;43.40;;;;;;10428041;28;20226;-71
2021/11/19 15:29:49;;;;;;;14.60;11.33;;;11.70;43.50;;;;;;10434153;28;20228;-71
2021/11/19 15:35:17;;;;;;;15.77;11.53;;;11.70;44.30;;;;;;10422618;28;20602;-71
2021/11/19 15:40:25;;;;;;;13.57;11.07;;;11.70;43.70;;;;;;10429459;28;20220;-72
2021/11/19 15:45:32;;;;;;;15.00;10.93;;;11.80;43.60;;;;;;10430147;28;20732;-69
2021/11/19 15:50:35;;;;;;;13.03;11.60;;;11.80;43.60;;;;;;10428856;28;20225;-69
2021/11/19 15:56:02;;;;;;;15.73;11.47;;;11.80;43.70;;;;;;10425316;28;20299;-71
2021/11/19 16:01:05;;;;;;;16.20;12.77;;;11.80;42.80;;;;;;10426300;28;20232;-72
2021/11/19 16:06:41;;;;;;;22.47;20.10;;;11.90;44.60;;;;;;10427915;28;20241;-70
2021/11/19 16:12:18;;;;;;;14.37;10.67;;;11.90;42.90;;;;;;10418782;28;20232;-69
2021/11/19 16:17:21;;;;;;;13.97;12.20;;;11.80;42.60;;;;;;10431496;28;20228;-67
2021/11/19 16:22:25;;;;;;;13.80;12.23;;;11.70;42.70;;;;;;10428409;28;20229;-68
2021/11/19 16:27:35;;;;;;;11.67;10.47;;;11.60;42.60;;;;;;10424945;28;20221;-69
2021/11/19 16:32:41;;;;;;;12.40;11.17;;;11.50;42.00;;;;;;10426780;28;20221;-67
2021/11/19 16:37:44;;;;;;;10.97;9.67;;;11.40;42.20;;;;;;10430155;28;20217;-67
2021/11/19 16:42:49;;;;;;;12.83;11.50;;;11.20;42.30;;;;;;10427831;28;20233;-68
2021/11/19 16:47:53;;;;;;;12.67;10.93;;;11.10;42.20;;;;;;10425232;28;20228;-71
2021/11/19 16:52:57;;;;;;;13.30;11.90;;;11.00;42.30;;;;;;10426352;28;20294;-69
2021/11/19 16:58:03;;;;;;;13.50;10.70;;;10.90;42.30;;;;;;10425906;28;20630;-71
2021/11/19 17:03:06;;;;;;;12.60;11.30;;;10.80;42.00;;;;;;10437317;28;20626;-72
2021/11/19 17:08:10;;;;;;;13.17;11.70;;;10.80;42.30;;;;;;10422130;28;20221;-74
2021/11/19 17:13:14;;;;;;;13.67;11.93;;;10.60;42.20;;;;;;10427363;28;20233;-73
2021/11/19 17:18:19;;;;;;;15.07;13.20;;;10.50;43.00;;;;;;10428659;28;20241;-74
2021/11/19 17:23:23;;;;;;;15.40;13.87;;;10.40;42.50;;;;;;10425740;28;20247;-71
2021/11/19 17:28:30;;;;;;;16.83;14.33;;;10.40;42.70;;;;;;10432327;28;20221;-74
2021/11/19 17:33:33;;;;;;;17.23;14.97;;;10.30;42.70;;;;;;10426443;28;20235;-74
2021/11/19 17:38:36;;;;;;;17.90;15.50;;;10.20;42.80;;;;;;10423527;28;20548;-72
2021/11/19 17:43:42;;;;;;;16.63;14.80;;;10.10;42.70;;;;;;10429455;28;20225;-71
2021/11/19 17:48:48;;;;;;;15.90;14.20;;;10.10;42.80;;;;;;10427126;28;20221;-72
2021/11/19 17:53:51;;;;;;;16.47;13.50;;;10.00;43.00;;;;;;10432449;28;20619;-71
2021/11/19 17:58:56;;;;;;;16.27;13.87;;;9.90;44.20;;;;;;10434525;28;20228;-71
2021/11/19 18:04:00;;;;;;;15.43;13.10;;;9.80;44.50;;;;;;10433909;28;20225;-71
2021/11/19 18:09:06;;;;;;;13.03;11.70;;;9.70;44.60;;;;;;10433012;28;20220;-71
2021/11/19 18:14:14;;;;;;;20.60;18.43;;;9.70;44.80;;;;;;10432643;28;20228;-70
2021/11/19 18:19:18;;;;;;;17.87;15.57;;;9.70;45.30;;;;;;10431243;28;20229;-73
2021/11/19 18:24:24;;;;;;;16.77;14.17;;;9.80;45.00;;;;;;10430401;28;20240;-73
2021/11/19 18:29:31;;;;;;;15.87;14.23;;;9.80;45.00;;;;;;10436666;28;20712;-71
2021/11/19 18:34:34;;;;;;;15.63;14.07;;;9.70;45.10;;;;;;10431977;28;20221;-71
2021/11/19 18:39:44;;;;;;;17.27;14.47;;;9.70;45.10;;;;;;10432556;28;20717;-71
2021/11/19 18:44:50;;;;;;;15.23;13.73;;;9.70;45.30;;;;;;10428124;28;20221;-71
2021/11/19 18:49:55;;;;;;;14.87;13.10;;;9.70;45.30;;;;;;10428909;28;20734;-70
2021/11/19 18:54:58;;;;;;;14.43;12.17;;;9.70;45.20;;;;;;10425253;28;20229;-70
2021/11/19 19:00:10;;;;;;;16.03;13.70;;;9.70;45.10;;;;;;10430091;28;20217;-71
2021/11/19 19:05:16;;;;;;;14.73;13.10;;;9.70;45.20;;;;;;10432955;28;20232;-71
2021/11/19 19:10:22;;;;;;;18.23;13.90;;;9.70;45.80;;;;;;10432580;28;20234;-71
2021/11/19 19:15:30;;;;;;;15.40;13.60;;;9.70;45.10;;;;;;10431787;28;20226;-71
2021/11/19 19:20:38;;;;;;;15.73;13.93;;;9.60;45.20;;;;;;10413944;28;20229;-71
2021/11/19 19:25:44;;;;;;;15.93;14.23;;;9.60;45.30;;;;;;10417925;28;20228;-71
2021/11/19 19:30:55;;;;;;;16.53;14.80;;;9.60;45.40;;;;;;10414029;28;20241;-71
2021/11/19 19:36:04;;;;;;;15.67;13.77;;;9.60;45.60;;;;;;10412946;28;20221;-70
2021/11/19 19:41:15;;;;;;;14.97;13.37;;;9.60;45.70;;;;;;10412381;28;20697;-70
2021/11/19 19:46:22;;;;;;;15.63;13.93;;;9.60;45.80;;;;;;10416673;28;20232;-70
2021/11/19 19:51:28;;;;;;;15.33;13.73;;;9.60;45.80;;;;;;10422846;28;20260;-69
2021/11/19 19:56:34;;;;;;;15.13;13.53;;;9.70;45.90;;;;;;10430281;28;20741;-69
2021/11/19 20:01:39;;;;;;;16.93;14.50;;;9.70;46.10;;;;;;10426402;28;20229;-70
2021/11/19 20:06:46;;;;;;;17.20;13.90;;;9.70;46.20;;;;;;10411151;28;20213;-70
2021/11/19 20:11:50;;;;;;;16.03;14.33;;;9.70;46.20;;;;;;10416017;28;20238;-72
2021/11/19 20:16:56;;;;;;;14.40;12.97;;;9.70;46.20;;;;;;10413651;28;20733;-72
2021/11/19 20:22:02;;;;;;;18.20;14.80;;;9.80;46.20;;;;;;10422544;28;20226;-72
2021/11/19 20:27:10;;;;;;;17.93;13.43;;;9.80;46.10;;;;;;10423860;28;20225;-72
2021/11/19 20:32:19;;;;;;;16.13;14.43;;;9.80;46.30;;;;;;10421949;28;20232;-70
2021/11/19 20:37:24;;;;;;;15.93;14.23;;;9.90;46.50;;;;;;10422775;28;20240;-70
2021/11/19 20:42:30;;;;;;;19.07;15.03;;;9.90;46.30;;;;;;10423042;28;20251;-70
2021/11/19 20:47:35;;;;;;;19.17;15.50;;;9.90;46.40;;;;;;10426094;28;20225;-70
2021/11/19 20:52:43;;;;;;;15.90;14.27;;;9.90;46.30;;;;;;10418670;28;20236;-70
2021/11/19 20:57:46;;;;;;;17.07;14.70;;;9.90;46.30;;;;;;10420873;28;20613;-70
2021/11/19 21:02:53;;;;;;;16.87;15.13;;;9.90;46.10;;;;;;10418959;28;20225;-70
2021/11/19 21:07:57;;;;;;;17.27;14.87;;;9.90;46.40;;;;;;10420356;28;20359;-72
2021/11/19 21:13:01;;;;;;;17.53;14.10;;;9.90;46.50;;;;;;10419526;28;20241;-71
2021/11/19 21:18:06;;;;;;;17.33;15.13;;;9.90;46.50;;;;;;10424841;28;20236;-70
2021/11/19 21:23:11;;;;;;;18.40;15.43;;;9.90;46.70;;;;;;10426533;28;20229;-70
2021/11/19 21:28:14;;;;;;;16.33;14.20;;;9.90;46.50;;;;;;10422280;28;20221;-70
2021/11/19 21:33:21;;;;;;;17.43;14.17;;;10.00;45.70;;;;;;10424917;28;20262;-70
2021/11/19 21:38:24;;;;;;;14.83;13.07;;;9.90;46.70;;;;;;10424695;28;20232;-71
2021/11/19 21:43:27;;;;;;;16.73;13.10;;;10.00;45.80;;;;;;10421425;28;20233;-71
2021/11/19 21:48:33;;;;;;;15.43;12.80;;;10.00;45.90;;;;;;10417679;28;20232;-71
2021/11/19 21:53:42;;;;;;;15.80;14.10;;;10.00;45.90;;;;;;10418418;28;20572;-72
2021/11/19 21:58:50;;;;;;;18.27;16.03;;;10.00;45.90;;;;;;10420873;28;20717;-71
2021/11/19 22:03:58;;;;;;;17.67;15.77;;;9.90;46.70;;;;;;10419427;28;20712;-70
2021/11/19 22:09:04;;;;;;;18.63;15.87;;;10.00;45.90;;;;;;10419829;28;20586;-70
2021/11/19 22:14:07;;;;;;;19.63;16.33;;;9.90;46.70;;;;;;10419805;28;20213;-70
2021/11/19 22:19:13;;;;;;;20.50;16.53;;;9.80;46.70;;;;;;10422802;28;20225;-70
2021/11/19 22:24:17;;;;;;;17.93;15.27;;;9.80;47.20;;;;;;10425301;28;20309;-70
2021/11/19 22:29:21;;;;;;;16.37;14.63;;;9.80;46.80;;;;;;10426673;28;20261;-70
2021/11/19 22:34:26;;;;;;;16.53;14.27;;;9.80;47.00;;;;;;10428568;28;20225;-69
2021/11/19 22:39:32;;;;;;;17.10;14.57;;;9.80;47.30;;;;;;10429261;28;20913;-70
2021/11/19 22:44:39;;;;;;;17.83;15.27;;;9.80;47.30;;;;;;10424389;28;20228;-70
2021/11/19 22:49:44;;;;;;;16.63;14.83;;;9.80;47.30;;;;;;10421387;28;20890;-70
2021/11/19 22:54:50;;;;;;;17.50;14.73;;;9.80;47.30;;;;;;10426706;28;20221;-69
2021/11/19 22:59:55;;;;;;;16.47;14.23;;;9.80;47.30;;;;;;10425206;28;20236;-70
2021/11/19 23:05:02;;;;;;;15.63;13.30;;;9.80;47.30;;;;;;10421870;28;20221;-69
2021/11/19 23:10:10;;;;;;;16.23;13.93;;;9.80;47.50;;;;;;10425752;28;20241;-70
2021/11/19 23:15:18;;;;;;;15.47;13.83;;;9.80;47.70;;;;;;10422654;28;20700;-70
2021/11/19 23:20:26;;;;;;;16.63;13.97;;;9.90;47.70;;;;;;10424742;28;20240;-70
2021/11/19 23:25:34;;;;;;;16.90;13.17;;;9.90;47.60;;;;;;10421402;28;20236;-70
2021/11/19 23:30:43;;;;;;;15.50;13.63;;;9.90;47.50;;;;;;10421781;28;20236;-71
2021/11/19 23:35:51;;;;;;;17.00;14.10;;;9.90;47.40;;;;;;10427624;28;20335;-70
2021/11/19 23:40:55;;;;;;;15.77;13.20;;;9.90;47.50;;;;;;10425124;28;20237;-71
2021/11/19 23:46:01;;;;;;;15.00;13.50;;;9.90;47.30;;;;;;10418725;28;20221;-71
2021/11/19 23:51:07;;;;;;;14.33;12.37;;;9.90;48.00;;;;;;10422730;28;20620;-71
2021/11/19 23:56:11;;;;;;;14.73;13.13;;;9.80;47.70;;;;;;10423295;28;20229;-71
